createdAt,value
2019-05-14T00:01:02.832Z,14.40
2019-05-14T00:03:31.132Z,14.40
2019-05-14T00:05:58.588Z,14.40
2019-05-14T00:08:25.994Z,14.30
2019-05-14T00:10:53.435Z,14.30
2019-05-14T00:13:21.480Z,14.30
2019-05-14T00:15:49.186Z,14.30
2019-05-14T00:18:16.620Z,14.20
2019-05-14T00:20:44.071Z,14.20
2019-05-14T00:23:11.848Z,14.20
2019-05-14T00:25:41.765Z,14.10
2019-05-14T00:28:08.771Z,14.20
2019-05-14T00:30:36.218Z,14.10
2019-05-14T00:33:03.597Z,14.10
2019-05-14T00:35:32.541Z,14.10
2019-05-14T00:38:01.353Z,14.00
2019-05-14T00:40:31.231Z,14.10
2019-05-14T00:42:58.338Z,14.00
2019-05-14T00:45:25.667Z,14.30
2019-05-14T00:47:53.141Z,14.20
2019-05-14T00:50:21.608Z,14.00
2019-05-14T00:52:51.467Z,13.90
2019-05-14T00:55:18.474Z,13.90
2019-05-14T00:57:45.837Z,13.90
2019-05-14T01:00:13.472Z,13.90
2019-05-14T01:02:41.526Z,13.80
2019-05-14T01:05:12.170Z,13.80
2019-05-14T01:07:38.961Z,13.80
2019-05-14T01:10:06.788Z,13.80
2019-05-14T01:12:34.175Z,13.80
2019-05-14T01:15:11.644Z,13.70
2019-05-14T01:17:31.538Z,13.70
2019-05-14T01:19:58.996Z,13.70
2019-05-14T01:22:26.343Z,13.70
2019-05-14T01:24:53.678Z,13.70
2019-05-14T01:27:21.550Z,13.60
2019-05-14T01:29:51.197Z,13.60
2019-05-14T01:32:18.127Z,13.60
2019-05-14T01:34:45.569Z,13.60
2019-05-14T01:37:13.089Z,13.60
2019-05-14T01:39:41.895Z,13.60
2019-05-14T01:42:12.177Z,13.60
2019-05-14T01:44:41.099Z,12.20
2019-05-14T01:47:08.089Z,13.60
2019-05-14T01:49:35.525Z,13.60
2019-05-14T01:52:03.001Z,13.60
2019-05-14T01:54:31.715Z,13.60
2019-05-14T01:56:59.415Z,13.60
2019-05-14T01:59:26.820Z,13.60
2019-05-14T02:01:54.229Z,13.60
2019-05-14T02:04:22.156Z,13.60
2019-05-14T02:06:51.461Z,13.60
2019-05-14T02:09:19.088Z,13.60
2019-05-14T02:11:46.448Z,13.60
2019-05-14T02:14:13.855Z,13.60
2019-05-14T02:16:42.212Z,13.60
2019-05-14T02:19:11.557Z,13.60
2019-05-14T02:21:39.147Z,13.60
2019-05-14T02:24:06.541Z,13.60
2019-05-14T02:26:33.996Z,13.60
2019-05-14T02:29:02.013Z,13.60
2019-05-14T02:31:29.643Z,13.60
2019-05-14T02:33:59.078Z,13.60
2019-05-14T02:36:26.272Z,13.60
2019-05-14T02:38:53.665Z,13.60
2019-05-14T02:41:20.952Z,13.60
2019-05-14T02:43:50.194Z,13.60
2019-05-14T02:46:21.721Z,13.60
2019-05-14T02:48:49.150Z,13.60
2019-05-14T02:51:19.549Z,13.60
2019-05-14T02:53:45.930Z,13.60
2019-05-14T02:56:13.360Z,13.60
2019-05-14T02:58:40.780Z,13.60
2019-05-14T03:01:09.450Z,13.60
2019-05-14T03:03:39.806Z,13.60
2019-05-14T03:06:09.197Z,14.80
2019-05-14T03:08:38.824Z,13.50
2019-05-14T03:11:04.941Z,14.50
2019-05-14T03:13:32.433Z,13.50
2019-05-14T03:15:59.893Z,13.50
2019-05-14T03:18:29.562Z,13.50
2019-05-14T03:21:00.440Z,13.50
2019-05-14T03:23:25.929Z,13.40
2019-05-14T03:25:53.604Z,13.40
2019-05-14T03:28:21.177Z,13.40
2019-05-14T03:30:52.141Z,13.40
2019-05-14T03:33:21.921Z,13.40
2019-05-14T03:35:56.320Z,13.40
2019-05-14T03:38:19.497Z,13.60
2019-05-14T03:40:45.697Z,13.90
2019-05-14T03:43:13.207Z,13.20
2019-05-14T03:45:41.125Z,13.30
2019-05-14T03:48:10.387Z,13.30
2019-05-14T03:50:38.940Z,13.20
2019-05-14T03:53:09.856Z,13.30
2019-05-14T03:55:35.958Z,13.20
2019-05-14T03:58:03.331Z,13.20
2019-05-14T04:00:50.341Z,13.20
2019-05-14T04:03:19.816Z,13.20
2019-05-14T04:05:49.317Z,13.20
2019-05-14T04:08:20.938Z,13.20
2019-05-14T04:10:53.483Z,13.20
2019-05-14T04:13:19.860Z,13.20
2019-05-14T04:15:49.744Z,13.20
2019-05-14T04:18:18.676Z,13.20
2019-05-14T04:20:50.078Z,13.20
2019-05-14T04:23:19.827Z,13.10
2019-05-14T04:25:51.687Z,13.10
2019-05-14T04:28:20.426Z,13.10
2019-05-14T04:30:51.828Z,13.10
2019-05-14T04:33:23.272Z,13.10
2019-05-14T04:35:52.117Z,13.00
2019-05-14T04:38:20.295Z,13.00
2019-05-14T04:40:49.362Z,13.00
2019-05-14T04:43:19.204Z,12.90
2019-05-14T04:45:49.361Z,13.00
2019-05-14T04:48:31.024Z,13.00
2019-05-14T04:50:49.500Z,12.90
2019-05-14T04:53:15.628Z,12.90
2019-05-14T04:55:43.125Z,12.90
2019-05-14T04:58:10.548Z,12.90
2019-05-14T05:00:39.106Z,12.90
2019-05-14T05:03:09.455Z,12.90
2019-05-14T05:05:39.094Z,12.90
2019-05-14T05:08:05.455Z,12.90
2019-05-14T05:10:32.919Z,12.90
2019-05-14T05:13:00.238Z,12.90
2019-05-14T05:15:30.981Z,12.90
2019-05-14T05:17:59.106Z,12.90
2019-05-14T05:20:29.184Z,12.90
2019-05-14T05:22:56.017Z,12.90
2019-05-14T05:25:23.487Z,13.00
2019-05-14T05:27:50.931Z,12.80
2019-05-14T05:30:19.095Z,13.00
2019-05-14T05:32:49.236Z,12.90
2019-05-14T05:35:15.810Z,13.00
2019-05-14T05:37:43.258Z,13.00
2019-05-14T05:40:10.868Z,13.00
2019-05-14T05:42:38.776Z,13.00
2019-05-14T05:45:08.131Z,13.10
2019-05-14T05:47:35.653Z,13.10
2019-05-14T05:50:04.205Z,13.10
2019-05-14T05:52:31.544Z,13.10
2019-05-14T05:54:59.011Z,13.10
2019-05-14T05:57:28.366Z,13.10
2019-05-14T06:00:01.914Z,13.20
2019-05-14T06:02:29.427Z,16.90
2019-05-14T06:04:58.668Z,13.20
2019-05-14T06:07:29.420Z,13.20
2019-05-14T06:09:58.808Z,13.30
2019-05-14T06:12:26.150Z,13.30
2019-05-14T06:14:53.519Z,13.30
2019-05-14T06:19:54.566Z,13.40
2019-05-14T06:22:21.869Z,13.70
2019-05-14T06:24:49.274Z,13.50
2019-05-14T06:27:18.200Z,13.80
2019-05-14T06:29:45.796Z,13.50
2019-05-14T06:32:13.356Z,13.50
2019-05-14T06:34:40.810Z,13.60
2019-05-14T06:37:09.125Z,13.60
2019-05-14T06:39:38.815Z,13.60
2019-05-14T06:42:05.744Z,13.70
2019-05-14T06:44:33.094Z,13.70
2019-05-14T06:47:00.399Z,12.30
2019-05-14T06:49:28.949Z,13.80
2019-05-14T06:51:59.388Z,13.80
2019-05-14T06:54:29.123Z,13.90
2019-05-14T06:56:58.239Z,13.90
2019-05-14T06:59:25.454Z,14.00
2019-05-14T07:01:54.238Z,14.10
2019-05-14T07:04:41.220Z,14.10
2019-05-14T07:07:08.695Z,14.30
2019-05-14T07:09:38.389Z,14.30
2019-05-14T07:12:08.881Z,14.30
2019-05-14T07:14:38.643Z,14.40
2019-05-14T07:17:09.041Z,14.40
2019-05-14T07:19:35.020Z,14.50
2019-05-14T07:22:22.133Z,14.60
2019-05-14T07:24:49.953Z,16.60
2019-05-14T07:27:19.238Z,14.80
2019-05-14T07:29:49.005Z,14.80
2019-05-14T07:32:16.062Z,14.90
2019-05-14T07:34:43.562Z,15.00
2019-05-14T07:37:11.055Z,15.10
2019-05-14T07:41:20.347Z,15.20
2019-05-14T07:43:48.309Z,15.30
2019-05-14T07:46:16.238Z,15.40
2019-05-14T07:48:43.679Z,15.50
2019-05-14T07:51:11.049Z,15.70
2019-05-14T07:53:42.281Z,15.70
2019-05-14T07:56:09.478Z,15.80
2019-05-14T07:58:38.655Z,15.90
2019-05-14T08:01:06.294Z,16.00
2019-05-14T08:03:33.734Z,16.10
2019-05-14T08:06:01.154Z,16.30
2019-05-14T08:08:29.277Z,16.50
2019-05-14T08:10:59.104Z,16.60
2019-05-14T08:13:28.212Z,16.90
2019-05-14T08:15:55.578Z,17.00
2019-05-14T08:18:22.936Z,17.20
2019-05-14T08:20:50.279Z,17.40
2019-05-14T08:23:18.404Z,17.60
2019-05-14T08:25:48.135Z,17.70
2019-05-14T08:28:15.419Z,17.90
2019-05-14T08:30:42.795Z,18.10
2019-05-14T08:33:10.235Z,18.20
2019-05-14T08:35:39.480Z,18.30
2019-05-14T08:38:11.319Z,18.40
2019-05-14T08:40:38.261Z,18.50
2019-05-14T08:43:05.811Z,18.60
2019-05-14T08:45:33.312Z,18.70
2019-05-14T08:48:03.054Z,18.90
2019-05-14T08:50:30.468Z,19.00
2019-05-14T08:52:59.770Z,19.20
2019-05-14T08:55:29.509Z,19.40
2019-05-14T08:57:58.902Z,19.60
2019-05-14T09:00:25.977Z,19.70
2019-05-14T09:02:55.735Z,19.80
2019-05-14T09:05:23.210Z,19.70
2019-05-14T09:07:51.682Z,19.80
2019-05-14T09:10:40.405Z,19.80
2019-05-14T09:13:11.501Z,19.80
2019-05-14T09:15:39.469Z,19.80
2019-05-14T09:42:39.744Z,19.80
2019-05-14T09:45:11.079Z,20.30
2019-05-14T09:47:38.728Z,20.90
2019-05-14T09:50:16.642Z,21.10
2019-05-14T09:52:38.885Z,21.30
2019-05-14T09:55:09.147Z,21.30
2019-05-14T09:57:35.923Z,21.40
2019-05-14T10:00:06.417Z,21.90
2019-05-14T10:02:33.928Z,22.70
2019-05-14T10:05:01.446Z,23.60
2019-05-14T10:07:28.968Z,24.60
2019-05-14T10:09:56.535Z,25.80
2019-05-14T10:12:24.014Z,27.10
2019-05-14T10:14:51.466Z,28.30
2019-05-14T10:17:19.509Z,29.50
2019-05-14T10:19:49.634Z,30.90
2019-05-14T10:22:19.489Z,32.10
2019-05-14T10:24:45.556Z,32.70
2019-05-14T10:27:13.059Z,33.10
2019-05-14T10:29:40.381Z,32.90
2019-05-14T10:32:08.727Z,32.60
2019-05-14T10:34:38.175Z,32.10
2019-05-14T10:37:08.322Z,31.50
2019-05-14T10:39:34.841Z,30.80
2019-05-14T10:42:02.286Z,28.50
2019-05-14T10:44:29.621Z,29.60
2019-05-14T10:46:58.247Z,29.00
2019-05-14T10:49:29.957Z,28.40
2019-05-14T10:51:58.618Z,27.80
2019-05-14T10:54:29.102Z,27.30
2019-05-14T10:56:58.778Z,23.70
2019-05-14T10:59:25.012Z,26.20
2019-05-14T11:01:52.355Z,25.70
2019-05-14T11:04:19.783Z,25.30
2019-05-14T11:06:49.132Z,24.90
2019-05-14T11:09:18.100Z,24.50
2019-05-14T11:11:45.705Z,24.20
2019-05-14T11:14:14.345Z,24.00
2019-05-14T11:16:42.102Z,23.80
2019-05-14T11:19:09.709Z,23.60
2019-05-14T11:21:39.219Z,23.30
2019-05-14T11:24:09.211Z,23.20
2019-05-14T11:26:38.888Z,22.90
2019-05-14T11:29:05.255Z,22.70
2019-05-14T11:31:34.359Z,22.50
2019-05-14T11:34:01.922Z,22.20
2019-05-14T11:36:29.394Z,21.90
2019-05-14T11:39:00.732Z,21.70
2019-05-14T11:41:26.106Z,21.50
2019-05-14T11:43:53.462Z,21.30
2019-05-14T11:46:34.285Z,21.20
2019-05-14T11:48:53.025Z,21.00
2019-05-14T11:51:40.514Z,20.90
2019-05-14T11:53:49.787Z,20.80
2019-05-14T11:56:19.486Z,20.80
2019-05-14T11:58:46.532Z,20.80
2019-05-14T12:01:14.040Z,20.90
2019-05-14T12:03:41.498Z,20.90
2019-05-14T12:06:09.749Z,20.90
2019-05-14T12:08:41.559Z,21.00
2019-05-14T12:11:08.733Z,21.20
2019-05-14T12:13:39.165Z,21.10
2019-05-14T12:16:08.353Z,21.00
2019-05-14T12:18:34.916Z,21.10
2019-05-14T12:21:02.417Z,21.10
2019-05-14T12:23:29.988Z,21.00
2019-05-14T12:25:58.770Z,21.10
2019-05-14T12:28:28.928Z,21.10
2019-05-14T12:30:58.127Z,21.20
2019-05-14T12:33:24.970Z,21.10
2019-05-14T12:35:52.464Z,21.20
2019-05-14T12:38:20.044Z,21.10
2019-05-14T12:40:47.525Z,21.30
2019-05-14T12:43:14.898Z,21.30
2019-05-14T12:45:42.362Z,21.20
2019-05-14T12:48:09.820Z,21.20
2019-05-14T12:50:39.176Z,21.20
2019-05-14T12:53:08.390Z,21.10
2019-05-14T12:55:35.704Z,21.00
2019-05-14T12:58:02.919Z,20.90
2019-05-14T13:00:30.441Z,20.80
2019-05-14T13:02:58.483Z,20.70
2019-05-14T13:05:28.956Z,20.50
2019-05-14T13:07:57.859Z,20.50
2019-05-14T13:10:24.829Z,20.40
2019-05-14T13:12:52.326Z,20.40
2019-05-14T13:15:20.268Z,20.30
2019-05-14T13:17:48.596Z,20.30
2019-05-14T13:20:18.375Z,20.40
2019-05-14T13:22:46.499Z,20.40
2019-05-14T13:25:14.859Z,20.40
2019-05-14T13:27:42.319Z,20.50
2019-05-14T13:30:10.414Z,20.50
2019-05-14T13:32:39.385Z,20.60
2019-05-14T13:35:12.599Z,20.70
2019-05-14T13:37:39.710Z,20.70
2019-05-14T13:40:09.274Z,20.80
2019-05-14T13:42:39.403Z,20.80
2019-05-14T13:45:06.627Z,20.90
2019-05-14T13:47:34.083Z,20.90
2019-05-14T13:50:01.513Z,21.00
2019-05-14T13:52:29.405Z,21.00
2019-05-14T13:54:57.861Z,21.10
2019-05-14T13:57:25.219Z,21.10
2019-05-14T13:59:52.741Z,21.10
2019-05-14T14:02:20.171Z,21.20
2019-05-14T14:04:48.224Z,21.20
2019-05-14T14:07:15.927Z,21.10
2019-05-14T14:09:43.447Z,21.10
2019-05-14T14:12:10.798Z,21.10
2019-05-14T14:14:38.856Z,21.00
2019-05-14T14:17:06.420Z,20.90
2019-05-14T14:19:33.873Z,20.90
2019-05-14T14:22:01.364Z,21.00
2019-05-14T14:24:29.247Z,20.90
2019-05-14T14:26:58.378Z,20.90
2019-05-14T14:29:26.068Z,21.00
2019-05-14T14:31:54.649Z,21.00
2019-05-14T14:34:22.054Z,20.90
2019-05-14T14:36:50.466Z,20.90
2019-05-14T14:39:19.307Z,20.90
2019-05-14T14:41:51.795Z,20.90
2019-05-14T14:44:19.350Z,20.90
2019-05-14T14:46:48.402Z,20.90
2019-05-14T14:49:18.725Z,20.90
2019-05-14T14:51:45.454Z,20.90
2019-05-14T14:54:16.120Z,20.80
2019-05-14T14:56:42.624Z,20.80
2019-05-14T14:59:10.034Z,20.60
2019-05-14T15:01:40.267Z,20.60
2019-05-14T15:04:13.488Z,20.60
2019-05-14T15:06:39.404Z,20.40
2019-05-14T15:09:06.376Z,20.30
2019-05-14T15:11:33.808Z,20.20
2019-05-14T15:14:01.347Z,20.10
2019-05-14T15:16:29.351Z,20.00
2019-05-14T15:18:58.283Z,19.90
2019-05-14T15:21:26.235Z,19.90
2019-05-14T15:24:07.283Z,22.60
2019-05-14T15:26:23.444Z,19.70
2019-05-14T15:28:51.146Z,19.70
2019-05-14T15:31:19.076Z,19.70
2019-05-14T15:33:50.435Z,19.70
2019-05-14T15:36:19.414Z,19.70
2019-05-14T15:38:48.474Z,19.80
2019-05-14T15:41:15.250Z,19.90
2019-05-14T15:43:42.764Z,19.90
2019-05-14T15:46:10.750Z,20.00
2019-05-14T15:48:39.459Z,21.80
2019-05-14T15:51:14.348Z,20.00
2019-05-14T15:53:38.640Z,20.00
2019-05-14T15:56:08.064Z,20.10
2019-05-14T15:58:35.394Z,20.10
2019-05-14T16:01:03.028Z,20.00
2019-05-14T16:03:30.499Z,20.00
2019-05-14T16:05:59.839Z,20.00
2019-05-14T16:08:29.591Z,19.90
2019-05-14T16:11:00.093Z,19.80
2019-05-14T16:13:28.465Z,19.70
2019-05-14T16:15:55.025Z,19.60
2019-05-14T16:18:22.613Z,19.50
2019-05-14T16:20:50.137Z,19.40
2019-05-14T16:23:18.760Z,19.40
2019-05-14T16:25:48.255Z,19.30
2019-05-14T16:28:15.575Z,19.20
2019-05-14T16:30:43.137Z,19.20
2019-05-14T16:33:10.587Z,19.00
2019-05-14T16:35:39.294Z,19.00
2019-05-14T16:38:08.399Z,18.90
2019-05-14T16:40:35.959Z,19.00
2019-05-14T16:43:03.409Z,18.90
2019-05-14T16:45:30.929Z,18.90
2019-05-14T16:47:59.334Z,18.80
2019-05-14T16:50:28.690Z,18.80
2019-05-14T16:52:58.374Z,18.80
2019-05-14T16:55:29.647Z,18.70
2019-05-14T16:57:54.809Z,18.70
2019-05-14T17:00:22.293Z,18.60
2019-05-14T17:02:49.801Z,18.60
2019-05-14T17:05:17.406Z,18.50
2019-05-14T17:07:44.851Z,18.50
2019-05-14T17:10:12.358Z,18.40
2019-05-14T17:12:52.684Z,18.30
2019-05-14T17:15:09.864Z,18.30
2019-05-14T17:17:37.499Z,18.30
2019-05-14T17:20:05.329Z,18.40
2019-05-14T17:22:33.694Z,18.20
2019-05-14T17:25:02.397Z,18.00
2019-05-14T17:27:29.986Z,17.90
2019-05-14T17:29:58.981Z,17.80
2019-05-14T17:32:30.041Z,17.80
2019-05-14T17:34:55.890Z,17.70
2019-05-14T17:37:23.313Z,17.60
2019-05-14T17:39:50.826Z,17.50
2019-05-14T17:42:19.237Z,20.20
2019-05-14T17:44:48.219Z,17.40
2019-05-14T17:47:18.609Z,17.30
2019-05-14T17:49:48.368Z,15.60
2019-05-14T17:52:15.382Z,17.20
2019-05-14T17:54:42.949Z,17.20
2019-05-14T17:57:10.400Z,17.10
2019-05-14T17:59:39.026Z,17.10
2019-05-14T18:02:08.713Z,17.10
2019-05-14T18:04:36.151Z,17.00
2019-05-14T18:07:03.646Z,17.00
2019-05-14T18:09:31.096Z,17.00
2019-05-14T18:11:58.749Z,16.90
2019-05-14T18:14:28.238Z,16.90
2019-05-14T18:16:58.260Z,16.90
2019-05-14T18:19:25.072Z,16.80
2019-05-14T18:21:52.517Z,16.80
2019-05-14T18:24:20.062Z,16.70
2019-05-14T18:26:51.031Z,16.60
2019-05-14T18:29:19.011Z,16.60
2019-05-14T18:31:52.528Z,16.60
2019-05-14T18:34:16.174Z,16.70
2019-05-14T18:36:43.537Z,16.40
2019-05-14T18:39:18.296Z,16.40
2019-05-14T18:41:44.340Z,16.40
2019-05-14T18:44:11.794Z,17.10
2019-05-14T18:46:39.578Z,16.20
2019-05-14T18:49:08.746Z,16.20
2019-05-14T18:51:36.386Z,16.10
2019-05-14T18:54:03.856Z,16.00
2019-05-14T18:56:31.576Z,16.00
2019-05-14T18:59:10.841Z,16.00
2019-05-14T19:01:39.706Z,14.00
2019-05-14T19:04:08.283Z,15.90
2019-05-14T19:06:38.338Z,15.90
2019-05-14T19:09:10.611Z,15.80
2019-05-14T19:11:38.773Z,15.80
2019-05-14T19:14:08.882Z,15.70
2019-05-14T19:16:38.118Z,15.60
2019-05-14T19:19:05.182Z,15.70
2019-05-14T19:22:28.817Z,15.60
2019-05-14T19:25:38.906Z,15.60
2019-05-14T19:28:08.773Z,15.60
2019-05-14T19:30:38.124Z,15.50
2019-05-14T19:33:05.395Z,16.20
2019-05-14T19:35:32.943Z,15.50
2019-05-14T19:38:00.449Z,15.40
2019-05-14T19:40:29.217Z,15.40
2019-05-14T19:43:01.603Z,15.40
2019-05-14T19:45:38.704Z,15.30
2019-05-14T19:48:32.921Z,15.40
2019-05-14T19:51:00.789Z,15.40
2019-05-14T19:53:28.472Z,15.40
2019-05-14T19:56:32.359Z,15.40
2019-05-14T19:59:00.137Z,15.40
2019-05-14T20:01:28.698Z,15.40
2019-05-14T20:03:58.802Z,15.30
2019-05-14T20:06:25.842Z,15.40
2019-05-14T20:08:53.877Z,15.40
2019-05-14T20:11:21.400Z,15.20
2019-05-14T20:13:48.839Z,15.30
2019-05-14T20:16:18.478Z,15.40
2019-05-14T20:18:48.622Z,15.40
2019-05-14T20:21:15.420Z,13.90
2019-05-14T20:23:42.830Z,15.30
2019-05-14T20:26:10.455Z,15.30
2019-05-14T20:28:39.053Z,15.30
2019-05-14T20:31:10.183Z,15.20
2019-05-14T20:33:36.186Z,15.20
2019-05-14T20:36:08.202Z,15.10
2019-05-14T20:38:35.974Z,15.10
2019-05-14T20:41:03.589Z,15.10
2019-05-14T20:43:31.762Z,12.00
2019-05-14T20:45:59.539Z,15.10
2019-05-14T20:48:29.128Z,15.00
2019-05-14T20:50:58.434Z,15.00
2019-05-14T20:53:25.968Z,15.00
2019-05-14T20:55:53.484Z,15.00
2019-05-14T20:58:20.993Z,14.90
2019-05-14T21:00:48.604Z,14.90
2019-05-14T21:03:18.506Z,14.90
2019-05-14T21:05:45.590Z,14.90
2019-05-14T21:08:13.768Z,14.90
2019-05-14T21:10:41.341Z,14.90
2019-05-14T21:13:08.848Z,14.90
2019-05-14T21:15:38.987Z,14.90
2019-05-14T21:18:07.959Z,14.80
2019-05-14T21:20:34.944Z,14.80
2019-05-14T21:23:09.091Z,14.90
2019-05-14T21:25:38.793Z,14.90
2019-05-14T21:28:06.356Z,14.80
2019-05-14T21:30:35.338Z,14.80
2019-05-14T21:33:02.894Z,14.80
2019-05-14T21:35:30.410Z,14.80
2019-05-14T21:37:59.292Z,14.80
2019-05-14T21:40:31.688Z,14.80
2019-05-14T21:42:56.652Z,18.40
2019-05-14T21:45:24.054Z,14.70
2019-05-14T21:47:51.439Z,14.70
2019-05-14T21:50:18.900Z,14.80
2019-05-14T21:52:46.400Z,14.70
2019-05-14T21:55:14.396Z,14.70
2019-05-14T21:57:53.588Z,14.70
2019-05-14T22:00:18.797Z,14.70
2019-05-14T22:02:49.219Z,14.70
2019-05-14T22:05:18.816Z,14.70
2019-05-14T22:07:48.103Z,14.70
2019-05-14T22:10:15.591Z,14.70
2019-05-14T22:12:43.470Z,14.70
2019-05-14T22:15:11.169Z,14.70
2019-05-14T22:20:12.787Z,14.60
2019-05-14T22:25:28.459Z,14.60
2019-05-14T22:28:10.849Z,14.60
2019-05-14T22:30:25.590Z,14.60
2019-05-14T22:32:53.413Z,14.60
2019-05-14T22:35:20.912Z,14.50
2019-05-14T22:37:48.495Z,14.50
2019-05-14T22:40:18.225Z,14.50
2019-05-14T22:42:45.389Z,17.20
2019-05-14T22:45:13.065Z,14.50
2019-05-14T22:47:40.673Z,14.50
2019-05-14T22:50:08.976Z,14.50
2019-05-14T22:52:38.637Z,14.50
2019-05-14T22:55:06.369Z,14.50
2019-05-14T22:57:33.702Z,14.50
2019-05-14T23:00:01.103Z,14.40
2019-05-14T23:02:28.552Z,14.40
2019-05-14T23:04:55.996Z,14.40
2019-05-14T23:07:23.332Z,14.40
2019-05-14T23:09:50.672Z,14.40
2019-05-14T23:12:18.110Z,14.40
2019-05-14T23:14:45.494Z,14.40
2019-05-14T23:17:12.806Z,14.40
2019-05-14T23:19:40.178Z,14.40
2019-05-14T23:22:07.558Z,14.40
2019-05-14T23:24:34.902Z,14.30
2019-05-14T23:27:03.423Z,14.30
2019-05-14T23:29:30.853Z,14.30
2019-05-14T23:31:58.848Z,14.30
2019-05-14T23:34:28.492Z,14.30
2019-05-14T23:37:08.495Z,14.30
2019-05-14T23:39:38.181Z,14.00
2019-05-14T23:42:05.040Z,14.30
2019-05-14T23:44:32.471Z,14.30
2019-05-14T23:46:59.815Z,14.30
2019-05-14T23:49:27.218Z,14.30
2019-05-14T23:51:54.663Z,14.30
2019-05-14T23:54:22.029Z,14.20
2019-05-14T23:56:49.465Z,14.20
2019-05-14T23:59:18.422Z,14.20
